Time;durP1;ratioP1;P1;durP2;ratioP2;P2;SDS_P1;SDS_P2;PMS_P1;PMS_P2;Temp;Humidity;BMP_temperature;BMP_pressure;BME280_temperature;BME280_humidity;BME280_pressure;Samples;Min_cycle;Max_cycle;Signal;HPM_P1;HPM_P2
2021/10/26 00:02:19;;;;;;;7.85;4.18;;;;;;;18.84;50.05;101617.94;4941095;29;20024;-60
2021/10/26 00:04:45;;;;;;;12.70;4.40;;;;;;;18.86;49.53;101624.03;4924975;29;20099;-60
2021/10/26 00:07:10;;;;;;;8.70;4.72;;;;;;;18.88;49.28;101610.28;4940925;29;20031;-60
2021/10/26 00:09:36;;;;;;;8.52;4.07;;;;;;;18.90;49.02;101625.41;4924898;29;20135;-60
2021/10/26 00:12:02;;;;;;;10.23;4.18;;;;;;;18.85;49.08;101611.47;4958256;29;20038;-60
2021/10/26 00:14:28;;;;;;;9.40;4.60;;;;;;;18.88;49.50;101616.56;4958066;29;20445;-60
2021/10/26 00:16:53;;;;;;;11.07;4.60;;;;;;;18.93;49.12;101616.94;4958102;29;20031;-61
2021/10/26 00:19:19;;;;;;;13.20;5.25;;;;;;;18.94;49.38;101618.63;4940973;29;20042;-60
2021/10/26 00:21:44;;;;;;;12.02;4.53;;;;;;;18.95;49.64;101617.63;4940592;29;20042;-60
2021/10/26 00:24:10;;;;;;;6.50;4.13;;;;;;;18.95;49.28;101619.50;4957756;29;20042;-60
2021/10/26 00:26:36;;;;;;;7.32;3.92;;;;;;;18.96;49.99;101624.75;4924892;29;20035;-60
2021/10/26 00:29:01;;;;;;;12.80;4.80;;;;;;;18.96;49.18;101627.47;4957511;29;20090;-60
2021/10/26 00:31:26;;;;;;;9.02;4.43;;;;;;;18.98;49.73;101628.13;4957493;29;20365;-60
2021/10/26 00:33:52;;;;;;;11.38;3.85;;;;;;;19.01;49.50;101627.81;4957716;28;20031;-60
2021/10/26 00:36:18;;;;;;;10.00;4.13;;;;;;;19.02;49.35;101623.25;4940522;29;20019;-60
2021/10/26 00:38:44;;;;;;;8.18;4.72;;;;;;;19.00;49.63;101631.56;4950411;29;20063;-60
2021/10/26 00:41:09;;;;;;;13.35;4.80;;;;;;;18.98;49.53;101628.13;4956041;29;20066;-60
2021/10/26 00:43:34;;;;;;;9.98;4.07;;;;;;;18.99;49.35;101629.84;4955951;28;20027;-61
2021/10/26 00:46:00;;;;;;;11.60;4.15;;;;;;;19.01;49.17;101633.25;4956136;29;20027;-60
2021/10/26 00:48:25;;;;;;;13.95;5.10;;;;;;;19.02;49.43;101634.97;4957428;28;20078;-60
2021/10/26 00:50:52;;;;;;;6.43;4.05;;;;;;;19.00;49.52;101628.84;4956003;29;20038;-61
2021/10/26 00:53:18;;;;;;;13.38;5.03;;;;;;;19.03;50.03;101630.38;4957585;28;20027;-60
2021/10/26 00:55:44;;;;;;;8.20;4.45;;;;;;;18.96;49.66;101619.31;4924186;29;20090;-60
2021/10/26 00:58:10;;;;;;;9.57;4.75;;;;;;;19.01;49.51;101627.00;4956002;29;20038;-60
2021/10/26 01:00:36;;;;;;;11.15;4.47;;;;;;;19.04;50.35;101632.91;4957013;28;20035;-60
2021/10/26 01:03:01;;;;;;;11.27;4.65;;;;;;;19.05;49.88;101634.63;4956024;29;20062;-60
2021/10/26 01:05:26;;;;;;;11.20;4.40;;;;;;;19.06;49.61;101635.50;4957821;28;20455;-60
2021/10/26 01:07:53;;;;;;;13.23;4.68;;;;;;;19.07;50.17;101638.03;4955863;29;20031;-60
2021/10/26 01:10:18;;;;;;;8.95;4.53;;;;;;;19.06;49.84;101641.78;4924062;29;20035;-60
2021/10/26 01:12:44;;;;;;;11.23;4.45;;;;;;;19.06;49.29;101640.91;4955899;29;20392;-61
2021/10/26 01:15:10;;;;;;;10.25;4.80;;;;;;;19.07;50.09;101648.88;4955902;29;20395;-60
2021/10/26 01:17:35;;;;;;;12.25;5.13;;;;;;;19.08;49.77;101652.47;4939563;29;20530;-60
2021/10/26 01:20:03;;;;;;;12.63;5.00;;;;;;;19.08;49.73;101650.59;4955788;29;20035;-60
2021/10/26 01:22:29;;;;;;;7.63;4.35;;;;;;;19.08;50.13;101649.75;4956511;28;20456;-60
2021/10/26 01:24:55;;;;;;;9.60;4.22;;;;;;;19.10;49.68;101653.13;4955658;29;20472;-60
2021/10/26 01:27:21;;;;;;;11.10;4.65;;;;;;;19.11;49.81;101652.13;4955461;29;20027;-60
2021/10/26 01:29:48;;;;;;;7.45;4.40;;;;;;;19.09;50.30;101644.16;4955612;29;20445;-60
2021/10/26 01:32:14;;;;;;;12.60;5.07;;;;;;;19.13;50.03;101656.38;4955258;28;20027;-61
2021/10/26 01:34:41;;;;;;;13.90;4.70;;;;;;;19.10;50.11;101648.56;4956585;28;20117;-60
2021/10/26 01:37:08;;;;;;;9.75;4.63;;;;;;;19.14;50.37;101649.94;4955171;29;20038;-60
2021/10/26 01:39:34;;;;;;;11.13;4.85;;;;;;;19.16;49.97;101647.91;4924010;29;20031;-60
2021/10/26 01:42:00;;;;;;;11.60;5.90;;;;;;;19.16;50.20;101641.63;4939564;29;20027;-60
2021/10/26 01:44:26;;;;;;;9.02;4.25;;;;;;;18.99;49.49;101624.41;4956590;29;20041;-60
2021/10/26 01:46:52;;;;;;;11.80;5.32;;;;;;;19.13;49.98;101648.25;4939595;29;20037;-60
2021/10/26 01:49:18;;;;;;;10.95;4.78;;;;;;;19.14;50.09;101649.94;4939269;29;20086;-60
2021/10/26 01:51:44;;;;;;;13.82;5.63;;;;;;;19.14;50.49;101649.09;4939456;29;20390;-60
2021/10/26 01:54:09;;;;;;;10.70;4.18;;;;;;;19.13;50.08;101652.81;4955897;28;20035;-60
2021/10/26 01:56:35;;;;;;;10.80;5.00;;;;;;;19.11;50.17;101647.56;4938998;29;20027;-60
2021/10/26 01:59:01;;;;;;;8.05;4.68;;;;;;;19.10;50.18;101659.44;4956291;29;20033;-60
2021/10/26 02:01:26;;;;;;;14.40;5.53;;;;;;;19.09;49.68;101657.75;4938948;29;20090;-60
2021/10/26 02:03:51;;;;;;;14.05;5.60;;;;;;;19.08;49.96;101656.03;4956054;29;20089;-60
2021/10/26 02:06:17;;;;;;;13.07;5.40;;;;;;;19.07;50.08;101659.75;4923029;29;20048;-60
2021/10/26 02:08:42;;;;;;;7.97;5.10;;;;;;;19.07;50.55;101658.91;4938972;29;20031;-61
2021/10/26 02:11:08;;;;;;;12.07;5.15;;;;;;;19.07;50.27;101659.75;4939318;29;20031;-60
2021/10/26 02:13:33;;;;;;;12.68;4.78;;;;;;;19.03;50.27;101636.66;4956102;29;20031;-60
2021/10/26 02:15:59;;;;;;;13.23;4.85;;;;;;;19.08;50.47;101647.88;4938998;29;20032;-60
2021/10/26 02:18:24;;;;;;;10.15;5.05;;;;;;;19.11;50.21;101654.84;4956097;29;20053;-60
2021/10/26 02:20:50;;;;;;;8.68;5.18;;;;;;;19.12;49.81;101643.81;4956346;29;20500;-60
2021/10/26 02:23:16;;;;;;;11.55;5.32;;;;;;;19.11;50.18;101644.84;4939067;29;20488;-60
2021/10/26 02:25:41;;;;;;;13.60;4.63;;;;;;;19.11;49.70;101639.41;4956052;29;20034;-61
2021/10/26 02:28:07;;;;;;;13.57;5.30;;;;;;;19.13;50.04;101642.81;4939037;29;20027;-60
2021/10/26 02:30:33;;;;;;;9.63;5.28;;;;;;;19.09;50.00;101646.88;4939009;29;20101;-60
2021/10/26 02:32:58;;;;;;;12.73;5.57;;;;;;;19.09;50.33;101655.03;4956648;28;20038;-60
2021/10/26 02:35:23;;;;;;;10.88;5.70;;;;;;;19.09;50.28;101651.47;4938558;29;20031;-60
2021/10/26 02:37:49;;;;;;;10.57;4.85;;;;;;;19.10;49.84;101648.56;4955876;29;20142;-60
2021/10/26 02:40:14;;;;;;;14.15;4.80;;;;;;;19.10;50.57;101648.56;4955535;29;20043;-60
2021/10/26 02:42:39;;;;;;;14.32;5.13;;;;;;;19.10;49.58;101654.00;4955404;29;20039;-60
2021/10/26 02:45:05;;;;;;;11.40;5.65;;;;;;;19.10;50.09;101655.84;4922611;29;20109;-60
2021/10/26 02:47:31;;;;;;;11.48;5.35;;;;;;;19.08;50.20;101650.59;4955375;29;20054;-60
2021/10/26 02:49:56;;;;;;;14.82;4.95;;;;;;;19.10;50.12;101651.28;4955468;29;20036;-60
2021/10/26 02:52:22;;;;;;;8.32;5.80;;;;;;;19.12;49.97;101656.56;4956087;29;20057;-60
2021/10/26 02:54:48;;;;;;;14.70;5.75;;;;;;;19.11;50.28;101658.44;4923086;29;20023;-60
2021/10/26 02:57:13;;;;;;;14.30;4.80;;;;;;;19.12;50.10;101646.53;4955370;29;20027;-60
2021/10/26 02:59:39;;;;;;;12.82;5.55;;;;;;;19.12;49.65;101645.69;4955405;29;20503;-60
2021/10/26 03:02:05;;;;;;;11.65;4.95;;;;;;;19.13;50.03;101648.25;4955325;29;20032;-60
2021/10/26 03:04:30;;;;;;;11.80;5.45;;;;;;;19.12;50.38;101645.69;4955500;29;20500;-60
2021/10/26 03:06:56;;;;;;;8.63;5.20;;;;;;;19.10;50.10;101656.72;4956792;28;20027;-60
2021/10/26 03:09:21;;;;;;;11.88;6.18;;;;;;;19.12;50.17;101653.84;4942701;29;20395;-60
2021/10/26 03:11:47;;;;;;;11.30;4.97;;;;;;;19.13;49.83;101648.25;4941511;29;20023;-60
2021/10/26 03:14:12;;;;;;;8.40;4.60;;;;;;;19.13;49.92;101664.53;4958692;29;20110;-60
2021/10/26 03:16:38;;;;;;;9.25;4.93;;;;;;;19.13;49.77;101650.94;4941915;29;20047;-60
2021/10/26 03:19:05;;;;;;;13.73;5.68;;;;;;;19.13;50.34;101663.69;4958897;29;20043;-60
2021/10/26 03:21:32;;;;;;;10.93;5.93;;;;;;;19.07;50.21;101654.31;4958717;29;20023;-60
2021/10/26 03:23:58;;;;;;;11.48;5.35;;;;;;;19.10;50.46;101656.72;4958979;29;20102;-61
2021/10/26 03:26:24;;;;;;;10.48;5.10;;;;;;;19.09;49.99;101656.88;4941442;29;20073;-61
2021/10/26 03:28:50;;;;;;;11.30;5.78;;;;;;;19.09;50.23;101667.75;4958772;29;20536;-60
2021/10/26 03:31:15;;;;;;;8.45;4.40;;;;;;;19.05;50.17;101664.50;4958466;29;20027;-60
2021/10/26 03:33:41;;;;;;;7.97;5.10;;;;;;;19.04;49.73;101661.94;4958237;28;20122;-60
2021/10/26 03:36:07;;;;;;;12.00;5.07;;;;;;;19.01;49.79;101665.84;4958429;29;20551;-60
2021/10/26 03:38:34;;;;;;;11.43;5.28;;;;;;;19.01;49.82;101670.44;4958090;29;20582;-60
2021/10/26 03:41:00;;;;;;;8.10;4.55;;;;;;;18.99;49.82;101667.88;4958338;29;20031;-60
2021/10/26 03:43:25;;;;;;;10.27;5.53;;;;;;;18.95;50.38;101669.22;4958383;29;20039;-60
2021/10/26 03:45:50;;;;;;;12.27;5.70;;;;;;;18.94;50.04;101675.66;4958278;29;20114;-60
2021/10/26 03:48:16;;;;;;;12.18;4.47;;;;;;;18.92;50.05;101680.41;4958000;29;20035;-60
2021/10/26 03:50:41;;;;;;;11.10;5.05;;;;;;;18.92;49.63;101683.13;4957997;29;20035;-60
2021/10/26 03:53:07;;;;;;;10.25;4.97;;;;;;;18.89;49.88;101682.59;4957977;29;20131;-60
2021/10/26 03:55:32;;;;;;;15.63;6.13;;;;;;;18.87;49.85;101688.16;4958036;29;20507;-60
2021/10/26 03:57:59;;;;;;;10.13;4.65;;;;;;;18.86;49.71;101691.91;4958130;29;20592;-60
2021/10/26 04:00:24;;;;;;;15.43;5.55;;;;;;;18.85;50.12;101692.91;4958244;29;20403;-60
2021/10/26 04:02:51;;;;;;;8.48;5.40;;;;;;;18.85;50.25;101697.50;4958369;29;20027;-60
2021/10/26 04:05:25;;;;;;;9.88;5.18;;;;;;;18.83;49.94;101694.94;4958457;29;20535;-60
2021/10/26 04:07:57;;;;;;;12.43;5.70;;;;;;;18.79;50.05;101687.31;4958023;29;20420;-60
2021/10/26 04:10:46;;;;;;;8.02;4.38;;;;;;;18.80;50.12;101687.13;4958114;29;20058;-60
2021/10/26 04:13:11;;;;;;;11.25;5.50;;;;;;;18.80;49.13;101703.41;4957867;29;20027;-60
2021/10/26 04:15:36;;;;;;;10.68;4.97;;;;;;;18.76;49.75;101693.88;4957793;29;20039;-60
2021/10/26 04:18:02;;;;;;;8.68;4.88;;;;;;;18.77;50.20;101698.31;4956997;28;20038;-60
2021/10/26 04:20:27;;;;;;;11.50;4.35;;;;;;;18.75;50.32;101692.19;4957634;29;20376;-60
2021/10/26 04:22:52;;;;;;;11.02;5.63;;;;;;;18.71;50.18;101696.22;4957386;29;20059;-60
2021/10/26 04:25:18;;;;;;;17.08;6.07;;;;;;;18.69;49.80;101698.25;4957385;29;20031;-60
2021/10/26 04:27:44;;;;;;;11.07;6.50;;;;;;;18.68;50.24;101701.97;4957222;29;20046;-60
2021/10/26 04:30:10;;;;;;;10.95;4.70;;;;;;;18.63;49.99;101692.63;4957450;29;20035;-60
2021/10/26 04:32:35;;;;;;;10.80;5.05;;;;;;;18.62;50.22;101691.75;4939976;29;20027;-60
2021/10/26 04:35:01;;;;;;;9.70;4.53;;;;;;;18.61;49.86;101700.94;4957349;29;20031;-60
2021/10/26 04:37:26;;;;;;;13.63;5.45;;;;;;;18.58;50.69;101695.81;4957154;28;20551;-60
2021/10/26 04:39:52;;;;;;;8.40;4.72;;;;;;;18.59;50.47;101692.09;4957449;29;20042;-60
2021/10/26 04:42:17;;;;;;;9.82;5.10;;;;;;;18.62;49.68;101699.91;4939809;29;20082;-60
2021/10/26 04:44:42;;;;;;;9.60;5.00;;;;;;;18.63;50.57;101701.59;4956992;29;20053;-60
2021/10/26 04:47:08;;;;;;;12.63;5.18;;;;;;;18.65;50.32;101707.72;4939983;29;20034;-60
2021/10/26 04:49:33;;;;;;;11.32;4.35;;;;;;;18.67;50.42;101705.72;4956950;29;20056;-60
2021/10/26 04:51:59;;;;;;;10.38;4.60;;;;;;;18.69;50.69;101706.41;4956905;29;20034;-60
2021/10/26 04:54:24;;;;;;;10.48;4.60;;;;;;;18.69;50.28;101709.13;4957011;29;20038;-60
2021/10/26 04:56:50;;;;;;;15.73;5.00;;;;;;;18.71;50.32;101708.94;4956974;29;20041;-60
2021/10/26 04:59:15;;;;;;;11.23;4.72;;;;;;;18.70;49.87;101708.13;4939671;29;20399;-60
2021/10/26 05:01:40;;;;;;;18.70;5.13;;;;;;;18.71;50.30;101709.81;4956540;29;20034;-60
2021/10/26 05:04:06;;;;;;;8.40;4.53;;;;;;;18.70;50.23;101713.53;4956650;29;20031;-60
2021/10/26 05:06:31;;;;;;;6.90;4.45;;;;;;;18.69;49.98;101719.97;4959076;28;20373;-60
2021/10/26 05:08:57;;;;;;;13.73;5.25;;;;;;;18.66;50.99;101714.00;4939364;29;20098;-60
2021/10/26 05:11:23;;;;;;;9.73;4.82;;;;;;;18.58;49.77;101717.53;4959487;28;20472;-60
2021/10/26 05:13:49;;;;;;;11.90;5.20;;;;;;;18.59;49.98;101722.78;4961715;28;20046;-60
2021/10/26 05:16:15;;;;;;;9.25;4.85;;;;;;;18.57;50.61;101721.25;4949210;28;20484;-60
2021/10/26 05:18:42;;;;;;;16.17;5.47;;;;;;;18.52;50.02;101726.28;4956843;28;20396;-60
2021/10/26 05:21:13;;;;;;;8.23;4.82;;;;;;;18.52;49.47;101719.00;4975721;28;20035;-60
2021/10/26 05:23:40;;;;;;;10.60;4.78;;;;;;;18.49;50.97;101723.91;4958127;28;20031;-60
2021/10/26 05:26:05;;;;;;;9.93;4.63;;;;;;;18.47;50.35;101720.47;4975595;28;20114;-60
2021/10/26 05:28:31;;;;;;;9.63;4.88;;;;;;;18.46;49.94;101724.19;4958201;28;20070;-61
2021/10/26 05:30:56;;;;;;;9.13;4.18;;;;;;;18.42;49.81;101714.66;4974784;28;20114;-61
2021/10/26 05:33:22;;;;;;;11.02;5.07;;;;;;;18.43;50.97;101725.34;4958125;28;20082;-61
2021/10/26 05:35:47;;;;;;;9.40;5.28;;;;;;;18.40;49.94;101713.94;4975414;28;20026;-60
2021/10/26 05:38:12;;;;;;;11.85;5.05;;;;;;;18.38;50.30;101713.28;4964144;28;20074;-60
2021/10/26 05:40:38;;;;;;;16.40;4.93;;;;;;;18.36;50.47;101718.88;4973940;28;20033;-60
2021/10/26 05:43:03;;;;;;;10.02;4.43;;;;;;;18.36;50.68;101734.28;4975102;28;20085;-60
2021/10/26 05:45:29;;;;;;;11.32;5.20;;;;;;;18.34;50.37;101736.31;4975114;28;20391;-60
2021/10/26 05:47:54;;;;;;;6.95;4.35;;;;;;;18.31;50.52;101729.34;4975032;28;20089;-60
2021/10/26 05:50:19;;;;;;;7.60;5.32;;;;;;;18.30;50.01;101718.63;4975018;28;20038;-60
2021/10/26 05:52:45;;;;;;;11.93;4.57;;;;;;;18.27;50.22;101721.66;4975140;28;20033;-60
2021/10/26 05:55:10;;;;;;;10.00;4.57;;;;;;;18.27;50.70;101727.94;4975310;28;20030;-60
2021/10/26 05:57:36;;;;;;;9.48;4.75;;;;;;;18.25;50.87;101731.81;4975099;28;20061;-60
2021/10/26 06:00:01;;;;;;;8.77;5.22;;;;;;;18.22;50.40;101729.41;4973939;28;20066;-60
2021/10/26 06:02:27;;;;;;;8.85;4.88;;;;;;;18.23;50.75;101731.97;4974962;28;20031;-60
2021/10/26 06:04:52;;;;;;;11.45;5.15;;;;;;;18.23;50.40;101741.97;4974840;28;20395;-60
2021/10/26 06:07:17;;;;;;;17.10;5.75;;;;;;;18.22;51.12;101751.13;4974864;28;20058;-60
2021/10/26 06:09:43;;;;;;;11.60;5.13;;;;;;;18.18;50.23;101741.56;4974893;28;20503;-60
2021/10/26 06:12:15;;;;;;;15.65;4.65;;;;;;;18.20;49.51;101764.00;4975110;28;20102;-60
2021/10/26 06:14:42;;;;;;;10.75;4.55;;;;;;;18.19;50.69;101765.00;4973983;28;20039;-60
2021/10/26 06:17:08;;;;;;;9.30;4.28;;;;;;;18.19;50.84;101754.13;4975229;28;20031;-60
2021/10/26 06:19:33;;;;;;;14.80;4.97;;;;;;;18.20;49.92;101766.72;4974912;28;20081;-60
2021/10/26 06:22:00;;;;;;;16.88;5.05;;;;;;;18.19;51.05;101773.13;4974991;28;20059;-60
2021/10/26 06:24:25;;;;;;;16.70;4.97;;;;;;;18.09;51.44;101761.53;4974836;28;20201;-61
2021/10/26 06:26:51;;;;;;;9.10;5.60;;;;;;;18.19;50.35;101775.84;4974777;28;20022;-60
2021/10/26 06:29:16;;;;;;;9.43;5.28;;;;;;;18.20;49.83;101789.22;4975047;28;20050;-60
2021/10/26 06:31:41;;;;;;;12.60;5.00;;;;;;;18.19;49.85;101787.53;4974769;28;20055;-60
2021/10/26 06:34:07;;;;;;;12.20;5.05;;;;;;;18.17;49.98;101788.72;4974925;28;20046;-60
2021/10/26 06:36:32;;;;;;;13.68;5.22;;;;;;;18.19;50.15;101802.97;4974708;28;20034;-60
2021/10/26 06:38:57;;;;;;;8.07;4.28;;;;;;;18.18;50.08;101803.94;4974746;28;20130;-60
2021/10/26 06:41:23;;;;;;;11.48;5.43;;;;;;;18.17;50.42;101816.69;4976473;28;20026;-60
2021/10/26 06:43:48;;;;;;;12.50;5.07;;;;;;;18.15;49.89;101813.25;4978558;28;20035;-60
2021/10/26 06:46:14;;;;;;;14.30;5.22;;;;;;;18.17;50.00;101818.53;4945153;28;20030;-60
2021/10/26 06:48:39;;;;;;;12.60;5.05;;;;;;;18.15;50.22;101826.81;4978493;28;20475;-60
2021/10/26 06:51:05;;;;;;;8.02;4.95;;;;;;;18.18;50.43;101828.38;4978700;28;20030;-60
2021/10/26 06:53:32;;;;;;;10.07;5.03;;;;;;;18.20;50.53;101831.81;4978512;28;20026;-60
2021/10/26 06:56:04;;;;;;;10.63;5.07;;;;;;;18.23;50.99;101834.22;4978656;28;20057;-61
2021/10/26 06:58:29;;;;;;;13.27;5.70;;;;;;;18.24;49.61;101836.75;4977350;28;20035;-60
2021/10/26 07:00:54;;;;;;;10.23;4.40;;;;;;;18.22;50.29;101832.50;4978435;28;20039;-61
2021/10/26 07:03:21;;;;;;;10.85;4.65;;;;;;;18.27;49.84;101843.72;4977961;28;20484;-60
2021/10/26 07:05:46;;;;;;;10.38;4.18;;;;;;;18.27;50.06;101844.56;4976921;28;20031;-60
2021/10/26 07:08:12;;;;;;;11.82;4.38;;;;;;;18.28;50.38;101829.16;4977985;28;20057;-60
2021/10/26 07:10:38;;;;;;;19.48;5.68;;;;;;;18.28;49.69;101829.16;4977911;28;20479;-60
2021/10/26 07:13:04;;;;;;;9.70;4.90;;;;;;;18.31;50.06;101828.84;4977878;28;20030;-60
2021/10/26 07:15:32;;;;;;;9.45;4.45;;;;;;;18.31;49.78;101818.00;4978128;28;20031;-60
2021/10/26 07:17:57;;;;;;;8.25;4.68;;;;;;;18.43;50.10;101828.44;4977989;28;20034;-61
2021/10/26 07:20:23;;;;;;;13.07;4.93;;;;;;;18.50;49.38;101820.59;4978412;28;20027;-60
2021/10/26 07:22:53;;;;;;;9.52;4.00;;;;;;;18.57;49.92;101829.78;4977823;28;20062;-60
2021/10/26 07:25:20;;;;;;;9.65;4.18;;;;;;;18.64;50.58;101841.75;4960887;28;20476;-60
2021/10/26 07:27:47;;;;;;;9.00;4.10;;;;;;;18.71;50.31;101842.81;4978296;28;20042;-60
2021/10/26 07:30:13;;;;;;;8.35;3.90;;;;;;;18.81;49.51;101854.44;4960923;28;20031;-61
2021/10/26 07:32:40;;;;;;;9.35;4.00;;;;;;;18.87;50.14;101842.94;4977905;28;20042;-60
2021/10/26 07:35:06;;;;;;;7.60;4.25;;;;;;;18.95;49.92;101845.72;4977898;28;20051;-60
2021/10/26 07:37:39;;;;;;;9.23;4.65;;;;;;;19.03;50.07;101839.50;4977726;28;20058;-60
2021/10/26 07:40:05;;;;;;;10.13;4.72;;;;;;;19.15;49.32;101844.50;4976670;28;20058;-61
2021/10/26 07:42:30;;;;;;;6.50;3.83;;;;;;;19.26;49.42;101847.97;4976517;28;20039;-60
2021/10/26 07:44:56;;;;;;;5.95;3.72;;;;;;;19.38;49.24;101846.66;4977702;28;20030;-61
2021/10/26 07:47:23;;;;;;;12.07;4.80;;;;;;;19.46;49.52;101844.03;4960714;28;20030;-60
2021/10/26 07:49:49;;;;;;;9.25;3.92;;;;;;;19.57;49.28;101841.88;4960748;28;20034;-61
2021/10/26 07:52:16;;;;;;;8.65;4.07;;;;;;;19.66;48.85;101848.19;4976937;28;20019;-60
2021/10/26 07:54:47;;;;;;;9.43;3.97;;;;;;;19.75;49.02;101852.66;4977908;28;20030;-61
2021/10/26 07:57:12;;;;;;;6.30;3.63;;;;;;;19.78;49.11;101860.50;4977530;28;20042;-60
2021/10/26 07:59:38;;;;;;;6.57;3.83;;;;;;;19.86;48.95;101863.25;4977473;28;20027;-60
2021/10/26 08:02:03;;;;;;;9.43;3.38;;;;;;;19.93;49.25;101869.75;4977012;28;20031;-61
2021/10/26 08:04:29;;;;;;;8.50;3.65;;;;;;;20.02;48.83;101863.28;4977882;28;20035;-61
2021/10/26 08:06:54;;;;;;;9.15;3.78;;;;;;;20.10;48.58;101867.94;4977520;28;20038;-61
2021/10/26 08:09:20;;;;;;;8.85;3.80;;;;;;;20.09;49.31;101864.34;4977153;28;20034;-61
2021/10/26 08:11:46;;;;;;;8.27;3.30;;;;;;;20.06;49.06;101875.56;4977360;28;20109;-60
2021/10/26 08:14:11;;;;;;;8.30;3.50;;;;;;;20.08;48.77;101870.81;4977010;28;20487;-60
2021/10/26 08:16:38;;;;;;;8.38;3.88;;;;;;;20.16;49.17;101870.81;4977110;28;20042;-61
2021/10/26 08:19:05;;;;;;;7.05;3.30;;;;;;;20.28;48.76;101880.41;4977010;28;20044;-61
2021/10/26 08:21:30;;;;;;;5.25;3.38;;;;;;;20.33;48.99;101867.16;4976603;28;20403;-60
2021/10/26 08:23:56;;;;;;;11.85;3.53;;;;;;;20.39;48.51;101868.34;4976843;28;20030;-61
2021/10/26 08:26:32;;;;;;;5.18;2.58;;;;;;;20.44;48.53;101862.41;4976773;28;20054;-61
2021/10/26 08:29:03;;;;;;;11.75;3.63;;;;;;;20.49;48.83;101871.75;4976724;28;20053;-60
2021/10/26 08:31:39;;;;;;;9.20;3.47;;;;;;;20.58;48.96;101857.16;4976754;28;20512;-61
2021/10/26 08:36:30;;;;;;;7.85;3.85;;;;;;;20.75;48.03;101856.13;4976654;28;20039;-60
2021/10/26 08:38:55;;;;;;;7.82;3.10;;;;;;;20.88;48.26;101870.09;4976431;28;20071;-61
2021/10/26 08:41:21;;;;;;;7.50;3.28;;;;;;;21.17;47.60;101850.50;4976285;28;20030;-61
2021/10/26 08:43:47;;;;;;;9.05;3.25;;;;;;;21.53;47.84;101856.38;4958806;28;20494;-61
2021/10/26 08:46:12;;;;;;;8.55;2.97;;;;;;;21.83;47.31;101849.31;4958824;28;20046;-60
2021/10/26 08:48:41;;;;;;;5.97;2.78;;;;;;;22.13;47.29;101851.22;4976060;28;20471;-60
2021/10/26 08:51:07;;;;;;;10.13;2.50;;;;;;;22.47;46.08;101859.03;4975865;28;20035;-61
2021/10/26 08:53:32;;;;;;;11.30;3.08;;;;;;;22.59;47.08;101850.22;4975777;28;20498;-61
2021/10/26 08:56:00;;;;;;;16.35;2.80;;;;;;;22.55;46.42;101846.16;4958570;28;20031;-61
2021/10/26 08:58:26;;;;;;;9.30;2.60;;;;;;;22.57;47.26;101851.44;4975941;28;20546;-60
2021/10/26 09:00:53;;;;;;;7.63;2.75;;;;;;;22.45;47.01;101848.25;4975678;28;20031;-60
2021/10/26 09:03:21;;;;;;;12.27;2.65;;;;;;;22.39;46.69;101848.97;4958360;28;20031;-60
2021/10/26 09:05:48;;;;;;;12.95;3.38;;;;;;;22.36;46.57;101849.34;4957422;28;20027;-60
2021/10/26 09:08:13;;;;;;;13.02;2.60;;;;;;;22.26;46.49;101856.94;4958622;28;20034;-61
2021/10/26 09:10:39;;;;;;;10.88;2.05;;;;;;;22.23;46.34;101857.28;4958281;28;20450;-61
2021/10/26 09:19:19;;;;;;;7.03;2.25;;;;;;;22.02;46.28;101862.53;4975408;28;20105;-60
2021/10/26 09:22:00;;;;;;;4.70;2.08;;;;;;;22.20;46.23;101865.84;4975478;28;20534;-60
2021/10/26 09:24:26;;;;;;;7.28;2.75;;;;;;;22.14;47.01;101869.28;4975327;28;20027;-60
2021/10/26 09:26:54;;;;;;;9.75;2.47;;;;;;;22.15;46.82;101870.97;4975197;28;20031;-60
2021/10/26 09:29:42;;;;;;;5.35;1.98;;;;;;;22.20;45.88;101857.63;4975234;28;20158;-61
2021/10/26 09:32:14;;;;;;;4.53;2.45;;;;;;;22.97;45.63;101858.47;4965861;28;20110;-61
2021/10/26 09:34:45;;;;;;;3.08;1.85;;;;;;;23.10;45.49;101864.16;4975110;28;20188;-61
2021/10/26 09:37:13;;;;;;;3.90;2.30;;;;;;;23.06;45.86;101862.84;4974767;28;20023;-61
2021/10/26 09:39:39;;;;;;;3.53;1.85;;;;;;;23.21;44.90;101863.69;4975024;28;20395;-60
2021/10/26 09:42:07;;;;;;;3.47;1.95;;;;;;;22.87;45.76;101863.31;4974864;28;20034;-61
2021/10/26 09:44:45;;;;;;;7.82;1.90;;;;;;;22.77;45.56;101870.94;4974837;28;20030;-60
2021/10/26 09:47:19;;;;;;;5.05;2.30;;;;;;;22.57;45.71;101873.28;4974842;28;20026;-60
2021/10/26 09:49:59;;;;;;;5.05;1.50;;;;;;;22.91;45.01;101876.47;4975030;28;20027;-60
2021/10/26 09:52:30;;;;;;;3.75;1.58;;;;;;;23.06;45.17;101879.25;4974711;28;20033;-60
2021/10/26 09:55:18;;;;;;;6.97;1.55;;;;;;;23.10;44.06;101891.47;4975226;28;20027;-60
2021/10/26 09:57:46;;;;;;;10.82;1.90;;;;;;;23.49;43.71;101880.34;4958270;28;20019;-60
2021/10/26 10:00:13;;;;;;;1.25;1.08;;;;;;;23.91;43.51;101877.78;4974695;28;20033;-61
2021/10/26 10:02:39;;;;;;;5.47;1.55;;;;;;;23.81;43.86;101880.00;4974918;28;20035;-60
2021/10/26 10:05:21;;;;;;;5.97;1.65;;;;;;;24.30;42.71;101885.69;4957703;28;20055;-61
2021/10/26 10:07:47;;;;;;;6.25;1.90;;;;;;;24.74;42.40;101883.63;4974602;28;20391;-61
2021/10/26 10:10:12;;;;;;;2.97;1.55;;;;;;;24.75;42.81;101893.56;4957408;28;20019;-61
2021/10/26 10:12:39;;;;;;;5.95;1.70;;;;;;;24.75;42.46;101890.81;4974588;28;20105;-60
2021/10/26 10:15:08;;;;;;;4.70;1.80;;;;;;;24.41;42.92;101882.44;4974546;28;20503;-60
2021/10/26 10:17:35;;;;;;;9.73;1.48;;;;;;;24.22;43.45;101888.53;4974354;28;20126;-61
2021/10/26 10:20:04;;;;;;;8.40;1.70;;;;;;;24.18;43.68;101892.69;4957400;28;20484;-61
2021/10/26 10:22:30;;;;;;;6.60;2.05;;;;;;;24.16;43.49;101886.56;4974503;28;20023;-61
2021/10/26 10:25:01;;;;;;;8.10;2.03;;;;;;;24.53;42.49;101896.47;4974541;28;20062;-60
2021/10/26 10:27:38;;;;;;;3.45;1.50;;;;;;;24.31;42.83;101904.69;4974366;28;20039;-61
2021/10/26 10:30:06;;;;;;;5.40;1.60;;;;;;;24.26;42.71;101900.81;4957484;28;20113;-60
2021/10/26 10:32:31;;;;;;;7.75;2.20;;;;;;;24.11;43.47;101899.97;4957077;28;20113;-60
2021/10/26 10:34:59;;;;;;;1.70;0.90;;;;;;;24.37;42.60;101902.19;4974369;28;20165;-60
2021/10/26 10:37:27;;;;;;;6.95;1.70;;;;;;;24.26;42.95;101895.34;4956804;28;20022;-60
2021/10/26 10:39:57;;;;;;;4.50;1.50;;;;;;;23.98;43.12;101894.31;4957087;28;20081;-60
2021/10/26 10:42:25;;;;;;;2.40;1.20;;;;;;;23.72;43.38;101892.06;4974206;28;20031;-61
2021/10/26 10:44:56;;;;;;;4.85;1.35;;;;;;;23.49;44.22;101889.41;4957434;28;20510;-60
2021/10/26 10:47:40;;;;;;;5.90;1.40;;;;;;;23.32;43.27;101890.59;4957040;28;20452;-60
2021/10/26 10:50:27;;;;;;;1.73;1.00;;;;;;;23.24;43.31;101893.41;4974430;28;20380;-60
2021/10/26 10:53:19;;;;;;;3.35;1.60;;;;;;;23.94;42.71;101884.78;4964255;28;20031;-61
2021/10/26 10:55:50;;;;;;;5.65;1.55;;;;;;;23.88;42.65;101885.53;4974380;28;20059;-61
2021/10/26 10:58:41;;;;;;;2.88;1.23;;;;;;;24.47;41.81;101881.66;4956863;28;20019;-60
2021/10/26 11:01:20;;;;;;;5.20;2.17;;;;;;;24.38;42.17;101881.97;4957153;28;20042;-61
2021/10/26 11:03:46;;;;;;;6.32;1.52;;;;;;;24.74;42.16;101878.13;4956683;28;20074;-61
2021/10/26 11:06:40;;;;;;;3.53;1.30;;;;;;;24.79;42.34;101881.16;4956815;28;20035;-61
2021/10/26 11:09:28;;;;;;;4.55;1.30;;;;;;;24.55;42.75;101889.75;4973934;28;20026;-60
2021/10/26 11:12:30;;;;;;;9.23;1.38;;;;;;;24.87;42.12;101883.78;4973763;28;20026;-60
2021/10/26 11:14:59;;;;;;;3.83;1.17;;;;;;;25.55;41.01;101887.72;4955727;28;20511;-61
2021/10/26 11:17:33;;;;;;;7.10;1.33;;;;;;;25.79;40.37;101884.50;4973940;28;20033;-60
2021/10/26 11:20:10;;;;;;;7.13;1.33;;;;;;;25.40;40.93;101878.72;4973933;28;20554;-61
2021/10/26 11:22:44;;;;;;;1.88;0.90;;;;;;;25.26;40.82;101885.16;4956370;28;20027;-60
2021/10/26 11:25:35;;;;;;;2.67;1.20;;;;;;;25.16;41.02;101876.41;4973985;28;20068;-60
2021/10/26 11:28:24;;;;;;;3.67;1.00;;;;;;;24.93;41.20;101892.28;4974935;28;20041;-61
2021/10/26 11:30:55;;;;;;;3.55;1.13;;;;;;;24.97;41.76;101882.59;4968463;28;20051;-60
2021/10/26 11:33:23;;;;;;;3.72;1.30;;;;;;;25.07;41.00;101880.38;4977044;28;20533;-60